Time;durP1;ratioP1;P1;durP2;ratioP2;P2;SDS_P1;SDS_P2;PMS_P1;PMS_P2;Temp;Humidity;BMP_temperature;BMP_pressure;BME280_temperature;BME280_humidity;BME280_pressure;Samples;Min_cycle;Max_cycle;Signal;HPM_P1;HPM_P2
2022/05/19 00:01:13;;;;;;;;;10.67;10.67;;;;;25.69;52.43;101054.97;5099478;27;46635;-73
2022/05/19 00:03:38;;;;;;;;;13.67;13.33;;;;;25.91;52.37;101102.34;5092389;27;45519;-71
2022/05/19 00:06:06;;;;;;;;;13.00;13.00;;;;;25.95;52.22;101097.25;5104441;27;45308;-72
2022/05/19 00:08:32;;;;;;;;;11.67;11.00;;;;;25.77;52.16;101066.34;5081765;27;45289;-73
2022/05/19 00:11:02;;;;;;;;;22.00;22.00;;;;;25.95;52.45;101099.97;5099436;27;47019;-73
2022/05/19 00:13:29;;;;;;;;;14.33;14.33;;;;;25.12;51.89;100968.38;5099625;27;45222;-72
2022/05/19 00:15:55;;;;;;;;;13.67;11.33;;;;;25.94;52.42;101106.50;5099588;27;45272;-72
2022/05/19 00:18:20;;;;;;;;;9.00;8.00;;;;;25.69;52.43;101069.44;5099554;27;45525;-72
2022/05/19 00:20:46;;;;;;;;;17.67;14.00;;;;;25.79;52.28;101082.44;5102356;27;45390;-74
2022/05/19 00:23:12;;;;;;;;;10.33;10.33;;;;;25.93;52.12;101102.94;5080725;27;45365;-71
2022/05/19 00:25:38;;;;;;;;;11.67;11.67;;;;;25.90;52.74;101095.25;5099772;27;45457;-73
2022/05/19 00:28:05;;;;;;;;;13.00;11.67;;;;;25.63;53.21;101051.28;5087199;27;45434;-71
2022/05/19 00:30:31;;;;;;;;;11.67;10.00;;;;;25.33;52.61;101002.38;5119890;27;46926;-71
2022/05/19 00:32:57;;;;;;;;;11.67;11.00;;;;;25.68;52.62;101051.44;5100573;27;45586;-72
2022/05/19 00:35:22;;;;;;;;;11.00;11.00;;;;;25.50;52.69;101029.72;5104947;27;45404;-72
2022/05/19 00:37:48;;;;;;;;;9.67;9.67;;;;;25.75;52.97;101067.66;5095757;27;45523;-76
2022/05/19 00:40:15;;;;;;;;;11.33;8.67;;;;;25.44;53.08;101023.34;5110118;27;46865;-72
2022/05/19 00:42:44;;;;;;;;;11.33;11.00;;;;;25.55;53.24;101037.19;5099385;27;45257;-73
2022/05/19 00:45:15;;;;;;;;;10.67;10.67;;;;;24.69;53.28;100897.09;5081298;27;45413;-71
2022/05/19 00:47:56;;;;;;;;;11.00;11.00;;;;;25.32;53.60;101010.75;5080934;27;45387;-75
2022/05/19 00:50:47;;;;;;;;;11.33;11.33;;;;;25.58;53.24;101053.88;5098385;27;46012;-74
2022/05/19 00:53:24;;;;;;;;;11.67;10.00;;;;;25.56;53.55;101063.34;5092916;27;45511;-73
2022/05/19 00:55:52;;;;;;;;;12.33;11.33;;;;;24.67;53.35;100905.47;5112079;27;45521;-73
2022/05/19 00:58:48;;;;;;;;;14.67;11.67;;;;;25.48;53.90;101038.13;5119584;27;45183;-72
2022/05/19 01:01:17;;;;;;;;;11.67;11.67;;;;;25.33;54.01;101023.31;5106436;27;46094;-75
2022/05/19 01:03:54;;;;;;;;;12.33;11.00;;;;;25.41;53.89;101044.72;5098196;27;45480;-72
2022/05/19 01:06:21;;;;;;;;;13.67;13.67;;;;;25.40;54.15;101035.72;5098335;27;45343;-74
2022/05/19 01:09:09;;;;;;;;;13.33;13.00;;;;;25.42;54.28;101038.22;5086690;27;45572;-75
2022/05/19 01:11:36;;;;;;;;;12.67;11.67;;;;;25.09;54.42;100974.28;5099060;27;45702;-73
2022/05/19 01:14:03;;;;;;;;;13.00;13.00;;;;;25.37;54.37;101022.59;5099387;27;45339;-73
2022/05/19 01:16:28;;;;;;;;;13.33;11.00;;;;;25.39;54.02;101028.63;5102780;27;45356;-74
2022/05/19 01:18:55;;;;;;;;;14.67;12.00;;;;;24.58;54.20;100902.25;5079909;27;45536;-73
2022/05/19 01:21:25;;;;;;;;;13.67;13.67;;;;;25.23;54.62;101002.13;5098358;27;47058;-72
2022/05/19 01:24:17;;;;;;;;;11.67;11.67;;;;;25.25;55.12;101015.50;5098198;27;45504;-75
2022/05/19 01:26:47;;;;;;;;;11.33;11.33;;;;;25.04;55.12;101001.38;5090866;27;45462;-73
2022/05/19 01:29:14;;;;;;;;;10.33;10.00;;;;;24.76;55.83;100952.19;5117759;27;45470;-72
2022/05/19 01:31:55;;;;;;;;;12.33;12.33;;;;;24.91;55.75;100987.13;5117617;27;46006;-73
2022/05/19 01:34:24;;;;;;;;;14.00;12.33;;;;;24.71;56.10;100960.22;5102824;27;46933;-74
2022/05/19 01:36:50;;;;;;;;;13.67;13.67;;;;;25.07;55.92;101024.56;5079803;27;45382;-73
2022/05/19 01:39:24;;;;;;;;;11.00;11.00;;;;;24.93;55.95;101013.00;5080020;27;45328;-73
2022/05/19 01:42:04;;;;;;;;;13.00;12.00;;;;;24.91;55.96;101001.53;5109297;27;46271;-72
2022/05/19 01:45:04;;;;;;;;;18.67;14.33;;;;;25.06;55.95;101033.78;5079112;27;45356;-70
2022/05/19 01:47:37;;;;;;;;;12.00;12.00;;;;;24.98;55.82;101015.84;5099136;27;45512;-73
2022/05/19 01:50:40;;;;;;;;;14.00;14.00;;;;;25.04;55.79;101025.03;5100320;27;45264;-71
2022/05/19 01:53:23;;;;;;;;;13.00;12.00;;;;;24.62;56.57;100967.03;5097927;27;47566;-72
2022/05/19 01:55:53;;;;;;;;;13.67;12.33;;;;;24.87;56.16;100997.63;5102836;27;45557;-73
2022/05/19 01:58:48;;;;;;;;;13.33;12.33;;;;;25.02;56.22;101022.53;5097684;27;45611;-73
2022/05/19 02:01:15;;;;;;;;;11.67;11.33;;;;;24.74;56.26;100973.34;5059598;27;45687;-73
2022/05/19 02:03:47;;;;;;;;;13.67;11.67;;;;;24.97;56.09;101019.66;5097962;27;46485;-71
2022/05/19 02:06:28;;;;;;;;;15.00;14.00;;;;;24.98;56.35;101015.03;5088128;27;46627;-73
2022/05/19 02:09:00;;;;;;;;;11.00;10.67;;;;;24.97;56.46;101024.25;5098171;27;45437;-73
2022/05/19 02:11:30;;;;;;;;;12.33;12.00;;;;;24.90;56.25;101005.31;5109167;27;45494;-74
2022/05/19 02:13:59;;;;;;;;;15.00;13.00;;;;;24.83;56.45;100991.00;5118263;27;45563;-73
2022/05/19 02:16:25;;;;;;;;;16.00;13.33;;;;;24.62;56.12;100956.16;5118429;27;45268;-72
2022/05/19 02:18:51;;;;;;;;;13.67;13.67;;;;;25.03;55.99;101021.50;5118369;27;45281;-72
2022/05/19 02:21:19;;;;;;;;;13.00;12.67;;;;;23.79;56.46;100846.28;5080532;27;46240;-72
2022/05/19 02:23:45;;;;;;;;;13.00;12.00;;;;;24.99;56.60;101028.44;5078640;27;47909;-72
2022/05/19 02:26:11;;;;;;;;;11.67;11.67;;;;;24.98;56.70;101021.31;5097346;27;45478;-71
2022/05/19 02:28:41;;;;;;;;;13.00;13.00;;;;;24.21;56.30;100906.09;5097415;27;45539;-74
2022/05/19 02:31:07;;;;;;;;;15.33;15.33;;;;;23.93;56.65;100883.06;5097667;27;45165;-72
2022/05/19 02:33:34;;;;;;;;;10.00;10.00;;;;;24.65;56.60;100983.72;5107554;27;46520;-74
2022/05/19 02:36:01;;;;;;;;;12.67;12.33;;;;;24.84;56.88;101023.41;5098606;27;45264;-73
2022/05/19 02:38:27;;;;;;;;;13.33;12.33;;;;;24.68;56.67;100982.44;5093931;27;46084;-72
2022/05/19 02:40:52;;;;;;;;;14.33;13.00;;;;;24.69;56.58;100984.94;5097332;27;45540;-75
2022/05/19 02:43:19;;;;;;;;;14.33;14.33;;;;;24.66;57.08;100979.13;5079033;27;47959;-72
2022/05/19 02:45:45;;;;;;;;;13.67;13.00;;;;;24.29;56.74;100921.31;5096996;27;45390;-72
2022/05/19 02:48:12;;;;;;;;;14.33;13.33;;;;;24.70;56.92;100980.31;5105315;27;45505;-74
2022/05/19 02:50:40;;;;;;;;;13.67;11.67;;;;;24.93;57.01;101021.19;5095351;27;45455;-73
2022/05/19 02:53:05;;;;;;;;;15.00;14.00;;;;;24.75;56.61;100994.88;5096745;27;46268;-73
2022/05/19 02:55:31;;;;;;;;;13.33;13.33;;;;;24.83;56.64;101012.75;5096814;27;45409;-72
2022/05/19 02:57:57;;;;;;;;;14.33;13.00;;;;;24.71;56.97;100999.09;5097152;27;45422;-72
2022/05/19 03:00:24;;;;;;;;;15.33;14.00;;;;;24.88;56.72;101026.50;5079137;27;45481;-73
2022/05/19 03:02:51;;;;;;;;;15.33;15.00;;;;;24.91;57.12;101028.75;5078948;27;47932;-71
2022/05/19 03:05:20;;;;;;;;;15.67;13.67;;;;;24.87;57.15;101025.66;5098072;27;45569;-72
2022/05/19 03:07:46;;;;;;;;;12.00;11.33;;;;;24.83;57.56;101029.91;5097010;27;45505;-72
2022/05/19 03:10:12;;;;;;;;;16.67;14.00;;;;;24.81;57.44;101040.16;5097411;27;45321;-71
2022/05/19 03:12:38;;;;;;;;;13.67;13.67;;;;;24.71;57.35;101020.03;5096982;27;45968;-73
2022/05/19 03:15:04;;;;;;;;;15.67;13.00;;;;;24.64;57.48;101013.88;5097979;27;45576;-70
2022/05/19 03:17:30;;;;;;;;;8.00;8.00;;;;;24.82;57.62;101033.66;5100512;27;45294;-72
2022/05/19 03:19:57;;;;;;;;;17.33;13.00;;;;;24.73;57.08;101018.75;5105150;27;45323;-71
2022/05/19 03:22:25;;;;;;;;;14.00;14.00;;;;;24.82;57.29;101020.06;5119621;27;45507;-73
2022/05/19 03:24:50;;;;;;;;;14.33;14.33;;;;;24.35;57.28;100951.09;5121047;27;45301;-72
2022/05/19 03:27:16;;;;;;;;;13.33;11.33;;;;;24.76;57.82;101022.88;5102895;27;45223;-72
2022/05/19 03:29:41;;;;;;;;;16.00;14.33;;;;;24.49;57.51;100982.47;5081977;27;45636;-73
2022/05/19 03:32:07;;;;;;;;;18.00;15.33;;;;;24.73;57.70;101028.78;5100030;27;45456;-71
2022/05/19 03:34:32;;;;;;;;;13.67;13.67;;;;;24.68;57.96;101025.94;5099824;27;45477;-72
2022/05/19 03:37:02;;;;;;;;;16.67;15.00;;;;;24.62;57.77;101033.09;5100018;27;45581;-73
2022/05/19 03:39:28;;;;;;;;;12.67;12.67;;;;;24.62;58.28;101021.41;5100228;27;45512;-72
2022/05/19 03:41:53;;;;;;;;;14.67;14.67;;;;;24.61;58.00;101033.34;5081481;27;48480;-72
2022/05/19 03:44:18;;;;;;;;;16.67;15.33;;;;;24.59;57.84;101028.13;5099551;27;45228;-72
2022/05/19 03:46:44;;;;;;;;;14.00;14.00;;;;;24.13;57.86;100953.44;5081830;27;45584;-72
2022/05/19 03:49:09;;;;;;;;;16.67;15.33;;;;;24.56;58.02;101029.41;5081896;27;45613;-70
2022/05/19 03:51:36;;;;;;;;;12.00;12.00;;;;;24.34;57.74;100987.47;5102744;27;46550;-72
2022/05/19 03:54:01;;;;;;;;;14.67;13.67;;;;;24.57;58.06;101035.69;5099405;27;45394;-75
2022/05/19 03:56:27;;;;;;;;;14.67;13.67;;;;;23.84;58.22;100911.59;5099060;27;45502;-73
2022/05/19 03:58:53;;;;;;;;;15.33;15.00;;;;;24.39;58.11;101000.38;5100311;27;45399;-73
2022/05/19 04:01:20;;;;;;;;;15.67;15.67;;;;;24.49;58.48;101045.00;5080980;27;48218;-74
2022/05/19 04:03:46;;;;;;;;;14.33;14.33;;;;;24.06;58.58;100966.28;5086264;27;45501;-71
2022/05/19 04:06:12;;;;;;;;;15.00;13.67;;;;;24.01;58.59;100960.69;5096549;27;45900;-74
2022/05/19 04:08:37;;;;;;;;;14.67;14.67;;;;;24.44;58.69;101038.59;5099512;27;45385;-72
2022/05/19 04:11:03;;;;;;;;;14.67;14.00;;;;;23.85;58.76;100931.44;5080718;27;47211;-74
2022/05/19 04:13:29;;;;;;;;;14.00;14.00;;;;;24.48;58.72;101037.06;5099360;27;45485;-72
2022/05/19 04:15:55;;;;;;;;;16.67;16.67;;;;;24.49;58.26;101034.13;5100082;27;45364;-74
2022/05/19 04:18:20;;;;;;;;;15.67;15.67;;;;;24.47;58.26;101025.38;5099721;27;45501;-73
2022/05/19 04:20:49;;;;;;;;;12.33;12.33;;;;;24.17;58.03;100970.94;5098920;27;46447;-74
2022/05/19 04:23:14;;;;;;;;;18.33;17.00;;;;;24.43;57.81;101002.44;5099017;27;45324;-72
2022/05/19 04:25:41;;;;;;;;;12.67;12.67;;;;;24.62;57.85;101021.41;5080156;27;45363;-71
2022/05/19 04:28:07;;;;;;;;;16.00;14.00;;;;;24.05;58.11;100929.31;5098606;27;45241;-75
2022/05/19 04:30:33;;;;;;;;;16.00;13.67;;;;;24.63;57.51;101018.47;5099728;27;45730;-72
2022/05/19 04:32:58;;;;;;;;;13.67;13.67;;;;;24.48;57.77;100999.84;5098151;27;45272;-74
2022/05/19 04:35:24;;;;;;;;;13.33;13.33;;;;;23.24;57.31;100793.91;5098907;27;45464;-73
2022/05/19 04:37:50;;;;;;;;;16.00;15.00;;;;;24.61;57.54;101022.47;5081288;27;45243;-72
2022/05/19 04:40:17;;;;;;;;;15.00;12.33;;;;;24.51;57.89;101009.44;5080073;27;45379;-70
2022/05/19 04:42:44;;;;;;;;;16.67;15.33;;;;;24.32;57.79;101000.47;5080458;27;46381;-72
2022/05/19 04:45:13;;;;;;;;;13.00;13.00;;;;;24.06;57.71;100949.16;5079889;27;45736;-72
2022/05/19 04:47:38;;;;;;;;;14.67;14.67;;;;;24.11;57.81;100971.03;5100475;27;45644;-73
2022/05/19 04:50:05;;;;;;;;;16.33;14.67;;;;;23.87;57.69;100932.03;5079975;27;46495;-71
2022/05/19 04:52:30;;;;;;;;;18.00;15.00;;;;;24.50;57.49;101024.09;5099132;27;45453;-70
2022/05/19 04:54:56;;;;;;;;;14.00;14.00;;;;;24.64;56.95;101049.22;5115848;27;45314;-73
2022/05/19 04:57:21;;;;;;;;;15.67;14.00;;;;;24.67;57.01;101059.63;5096346;27;45328;-73
2022/05/19 04:59:47;;;;;;;;;16.67;15.33;;;;;24.67;57.39;101057.75;5104936;27;46449;-73
2022/05/19 05:02:12;;;;;;;;;15.00;15.00;;;;;24.68;56.72;101064.00;5082052;27;45281;-75
2022/05/19 05:04:38;;;;;;;;;14.67;14.67;;;;;24.63;56.82;101050.25;5098414;27;45468;-73
2022/05/19 05:07:05;;;;;;;;;13.67;13.67;;;;;24.73;56.68;101073.13;5099279;27;45307;-74
2022/05/19 05:09:30;;;;;;;;;14.33;14.33;;;;;24.85;56.38;101087.63;5097704;27;46620;-72
2022/05/19 05:11:56;;;;;;;;;15.00;13.33;;;;;24.92;56.65;101092.97;5098960;27;45218;-70
2022/05/19 05:14:21;;;;;;;;;13.33;12.33;;;;;24.91;56.33;101085.84;5112566;27;45533;-73
2022/05/19 05:16:48;;;;;;;;;12.67;12.67;;;;;24.36;56.80;101023.41;5101835;27;45540;-74
2022/05/19 05:19:18;;;;;;;;;14.33;13.67;;;;;24.92;56.74;101154.69;5100879;27;45670;-73
2022/05/19 05:21:44;;;;;;;;;14.00;14.00;;;;;24.53;57.08;101127.75;5079330;27;45486;-75
2022/05/19 05:24:10;;;;;;;;;13.67;13.67;;;;;24.84;56.83;101134.91;5099980;27;45386;-72
2022/05/19 05:26:35;;;;;;;;;13.67;13.67;;;;;24.87;56.86;101100.97;5119261;27;45456;-73
2022/05/19 05:29:00;;;;;;;;;13.67;13.67;;;;;24.83;56.32;101122.38;5118905;27;46005;-72
2022/05/19 05:31:26;;;;;;;;;14.67;14.33;;;;;24.79;56.88;101132.03;5099946;27;45982;-74
2022/05/19 05:33:51;;;;;;;;;17.00;15.33;;;;;24.14;56.66;101020.28;5119125;27;45205;-71
2022/05/19 05:36:17;;;;;;;;;13.67;13.67;;;;;24.28;56.70;101037.28;5101200;27;45224;-72
2022/05/19 05:38:46;;;;;;;;;15.67;14.33;;;;;24.94;56.60;101142.50;5097165;27;47776;-73
2022/05/19 05:41:12;;;;;;;;;15.67;13.00;;;;;24.95;56.10;101130.56;5118253;27;45314;-76
2022/05/19 05:43:39;;;;;;;;;14.00;14.00;;;;;24.42;56.35;101038.78;5104422;27;45353;-76
2022/05/19 05:46:19;;;;;;;;;15.33;14.33;;;;;25.01;55.91;101135.13;5098332;27;45368;-73
2022/05/19 05:48:48;;;;;;;;;14.33;14.33;;;;;24.79;56.36;101091.22;5099418;27;45726;-79
2022/05/19 05:51:15;;;;;;;;;12.00;12.00;;;;;24.24;55.33;100981.75;5098354;27;45342;-72
2022/05/19 05:53:42;;;;;;;;;15.67;15.67;;;;;24.98;56.01;101108.34;5080422;27;45486;-74
2022/05/19 05:56:20;;;;;;;;;15.67;13.67;;;;;24.98;55.18;101102.06;5097866;27;45426;-74
2022/05/19 05:58:46;;;;;;;;;12.00;12.00;;;;;24.98;54.88;101102.06;5079120;27;47303;-73
2022/05/19 06:01:15;;;;;;;;;17.67;12.67;;;;;24.78;55.12;101065.09;5095992;27;45276;-72
2022/05/19 06:03:41;;;;;;;;;14.00;13.00;;;;;25.26;55.61;101120.56;5118826;27;45323;-71
2022/05/19 06:06:06;;;;;;;;;14.00;14.00;;;;;24.87;55.10;101035.72;5118380;27;45260;-70
2022/05/19 06:08:32;;;;;;;;;12.00;12.00;;;;;25.10;54.82;101079.34;5118726;27;46469;-75
2022/05/19 06:10:59;;;;;;;;;16.00;15.33;;;;;25.43;54.20;101119.69;5118655;27;45601;-73
2022/05/19 06:13:25;;;;;;;;;17.67;15.67;;;;;25.30;55.31;101102.72;5118320;27;45468;-76
2022/05/19 06:15:51;;;;;;;;;16.33;14.33;;;;;24.93;54.77;101040.22;5115489;27;45499;-71
2022/05/19 06:18:17;;;;;;;;;13.00;12.33;;;;;25.48;54.50;101118.97;5097498;27;46254;-73
2022/05/19 06:20:42;;;;;;;;;11.67;11.67;;;;;25.63;54.91;101137.56;5087708;27;45534;-78
2022/05/19 06:23:08;;;;;;;;;19.67;15.00;;;;;25.30;54.19;101084.47;5100500;27;45342;-72
2022/05/19 06:25:34;;;;;;;;;16.00;15.67;;;;;25.75;54.76;101141.19;5115582;27;45328;-73
2022/05/19 06:28:01;;;;;;;;;15.67;15.67;;;;;25.82;54.08;101146.50;5098656;27;45564;-71
2022/05/19 06:30:28;;;;;;;;;16.33;16.00;;;;;25.77;54.09;101118.09;5091548;27;45620;-71
2022/05/19 06:32:54;;;;;;;;;18.00;15.33;;;;;25.64;54.62;101085.63;5106424;27;45355;-72
2022/05/19 06:35:27;;;;;;;;;17.33;15.00;;;;;25.40;53.66;101041.19;5098246;27;45560;-71
2022/05/19 06:37:52;;;;;;;;;15.33;14.67;;;;;25.75;53.90;101092.16;5113629;27;45864;-73
2022/05/19 06:40:18;;;;;;;;;11.33;11.33;;;;;25.53;53.67;101056.47;5100653;27;45224;-71
2022/05/19 06:42:45;;;;;;;;;17.33;16.33;;;;;25.84;53.24;101098.09;5097250;27;45277;-73
2022/05/19 06:45:13;;;;;;;;;15.00;14.33;;;;;26.06;53.23;101129.97;5105461;27;45480;-72
2022/05/19 06:47:38;;;;;;;;;14.00;13.67;;;;;26.12;53.07;101136.34;5109598;27;45777;-72
2022/05/19 06:50:06;;;;;;;;;17.33;16.33;;;;;25.99;52.94;101101.16;5108949;27;45388;-74
2022/05/19 06:52:33;;;;;;;;;18.67;16.33;;;;;26.28;52.64;101141.09;5090276;27;45439;-73
2022/05/19 06:55:02;;;;;;;;;16.67;14.00;;;;;26.35;52.61;101141.00;5083436;27;45288;-74
2022/05/19 06:57:30;;;;;;;;;15.33;14.67;;;;;26.46;52.42;101158.41;5101448;27;46555;-73
2022/05/19 06:59:55;;;;;;;;;13.00;13.00;;;;;25.76;52.37;101026.56;5103427;27;45576;-72
2022/05/19 07:02:25;;;;;;;;;14.33;13.33;;;;;26.36;52.39;101116.22;5101058;27;45310;-71
2022/05/19 07:04:51;;;;;;;;;17.00;15.33;;;;;25.75;52.07;101019.44;5093754;27;45482;-70
2022/05/19 07:07:17;;;;;;;;;16.00;15.33;;;;;25.38;52.43;100945.31;5082139;27;48459;-74
2022/05/19 07:09:42;;;;;;;;;16.33;14.33;;;;;26.62;52.11;101141.28;5099878;27;45419;-71
2022/05/19 07:12:09;;;;;;;;;19.67;14.33;;;;;26.74;51.87;101157.66;5094651;27;45379;-72
2022/05/19 07:14:35;;;;;;;;;17.33;16.00;;;;;26.89;51.44;101147.88;5121603;27;45643;-71
2022/05/19 07:17:01;;;;;;;;;15.33;15.00;;;;;26.55;51.15;101086.06;5102935;27;48010;-71
2022/05/19 07:22:22;;;;;;;;;13.00;12.00;;;;;26.89;50.59;101119.78;5096541;27;45375;-74
2022/05/19 07:24:48;;;;;;;;;15.67;14.00;;;;;27.11;50.97;101145.34;5117855;27;45284;-73
2022/05/19 07:27:14;;;;;;;;;15.33;15.33;;;;;27.19;50.82;101158.59;5105304;27;45480;-73
2022/05/19 07:29:39;;;;;;;;;19.00;18.00;;;;;27.25;50.76;101145.88;5119433;27;45336;-73
2022/05/19 07:32:05;;;;;;;;;15.00;14.00;;;;;27.28;49.84;101151.69;5107076;27;45359;-75
2022/05/19 07:34:34;;;;;;;;;15.33;14.33;;;;;27.24;49.97;101125.94;5122054;27;45413;-76
2022/05/19 07:37:00;;;;;;;;;14.33;14.33;;;;;27.56;49.63;101156.28;5098514;27;47556;-75
2022/05/19 07:39:25;;;;;;;;;18.00;15.67;;;;;27.66;49.28;101125.63;5111223;27;45326;-73
2022/05/19 07:41:53;;;;;;;;;18.67;16.67;;;;;28.42;48.09;101142.34;5100895;27;45536;-74
2022/05/19 07:44:22;;;;;;;;;15.33;14.33;;;;;28.96;46.71;101134.31;5102088;27;45305;-71
2022/05/19 07:46:48;;;;;;;;;20.00;14.00;;;;;29.67;45.43;101174.25;5111783;27;46921;-73
2022/05/19 07:49:14;;;;;;;;;14.33;13.33;;;;;29.95;44.92;101104.56;5093094;27;45678;-76
2022/05/19 07:51:41;;;;;;;;;22.67;20.33;;;;;30.84;43.14;101149.53;5100738;27;45500;-75
2022/05/19 07:54:26;;;;;;;;;17.67;17.67;;;;;31.40;42.35;101163.41;5105281;27;45493;-75
2022/05/19 07:56:52;;;;;;;;;15.67;15.67;;;;;31.81;41.40;101156.06;5108137;27;46540;-75
2022/05/19 07:59:19;;;;;;;;;17.00;16.33;;;;;32.40;39.83;101166.44;5084647;27;46108;-74
2022/05/19 08:01:46;;;;;;;;;19.00;16.00;;;;;32.79;39.04;101171.28;5105102;27;45411;-74
2022/05/19 08:04:13;;;;;;;;;13.67;13.67;;;;;33.00;38.62;101178.38;5088266;27;45386;-74
2022/05/19 08:06:39;;;;;;;;;14.33;13.33;;;;;33.33;38.42;101179.59;5096052;27;45702;-75
2022/05/19 08:11:50;;;;;;;;;12.00;12.00;;;;;34.06;36.28;101157.53;5101249;27;45378;-73
2022/05/19 08:17:00;;;;;;;;;16.67;15.33;;;;;35.06;34.23;101177.94;5099203;27;45401;-73
2022/05/19 08:19:25;;;;;;;;;10.00;10.00;;;;;35.30;33.87;101195.28;5082782;27;45434;-77
2022/05/19 08:21:51;;;;;;;;;16.67;14.33;;;;;35.69;33.60;101218.25;5105743;27;45555;-76
2022/05/19 08:24:17;;;;;;;;;13.67;13.00;;;;;35.17;32.64;101107.56;5110239;27;45537;-75
2022/05/19 08:26:42;;;;;;;;;16.00;13.33;;;;;35.89;33.08;101210.47;5096359;27;46368;-79
2022/05/19 08:29:08;;;;;;;;;14.00;14.00;;;;;36.02;32.91;101216.31;5109080;27;45437;-75
2022/05/19 08:31:33;;;;;;;;;21.00;18.33;;;;;35.45;33.04;101077.31;5094519;27;45546;-78
2022/05/19 08:34:03;;;;;;;;;11.00;11.00;;;;;35.83;31.90;101120.34;5097630;27;45604;-79
2022/05/19 08:36:29;;;;;;;;;13.67;13.67;;;;;36.60;32.22;101243.53;5086544;27;48212;-73
2022/05/19 08:38:54;;;;;;;;;13.33;13.33;;;;;36.69;31.30;101247.25;5091969;27;45804;-80
2022/05/19 08:41:41;;;;;;;;;15.33;13.33;;;;;36.60;31.39;101260.97;5084900;27;45547;-74
2022/05/19 08:44:26;;;;;;;;;13.00;13.00;;;;;36.42;31.84;101281.25;5119435;27;45455;-77
2022/05/19 08:46:53;;;;;;;;;11.00;11.00;;;;;36.15;31.16;101243.22;5119963;27;46158;-77
2022/05/19 08:49:27;;;;;;;;;12.33;11.33;;;;;36.22;30.69;101274.09;5119537;27;45257;-75
2022/05/19 08:52:15;;;;;;;;;15.00;14.67;;;;;35.99;30.68;101272.28;5101667;27;45555;-78
2022/05/19 08:54:45;;;;;;;;;16.33;15.67;;;;;35.69;30.71;101216.31;5101832;27;45256;-76
2022/05/19 08:57:20;;;;;;;;;15.33;11.33;;;;;36.22;30.03;101282.41;5120130;27;45441;-77
2022/05/19 09:00:24;;;;;;;;;11.67;11.67;;;;;36.48;29.89;101297.50;5101133;27;45734;-75
2022/05/19 09:03:24;;;;;;;;;11.67;9.00;;;;;36.83;29.51;101286.88;5068134;27;45361;-75
2022/05/19 09:06:05;;;;;;;;;12.00;11.33;;;;;37.19;28.13;101294.47;5120340;27;45531;-77
2022/05/19 09:08:56;;;;;;;;;14.33;14.33;;;;;37.69;27.80;101301.72;5100379;27;47506;-74
2022/05/19 09:11:38;;;;;;;;;7.33;7.33;;;;;37.81;27.46;101306.72;5061961;27;45351;-76
2022/05/19 09:14:24;;;;;;;;;8.33;7.67;;;;;37.73;27.56;101310.25;5119856;27;45269;-76
2022/05/19 09:16:53;;;;;;;;;9.00;9.00;;;;;37.74;27.36;101312.72;5119998;27;45408;-76
2022/05/19 09:19:25;;;;;;;;;6.33;6.33;;;;;37.89;27.29;101319.06;5101077;27;47789;-75
2022/05/19 09:22:07;;;;;;;;;6.67;6.67;;;;;37.77;26.90;101332.66;5119327;27;45215;-77
2022/05/19 09:24:34;;;;;;;;;7.33;7.33;;;;;37.01;27.04;101294.28;5119986;27;45335;-76
2022/05/19 09:27:01;;;;;;;;;9.33;8.67;;;;;36.75;27.47;101354.06;5101558;27;45516;-77
2022/05/19 09:29:35;;;;;;;;;8.00;8.00;;;;;36.32;27.28;101334.06;5101534;27;47675;-76
2022/05/19 09:32:12;;;;;;;;;19.00;17.00;;;;;35.70;28.64;101300.94;5100696;27;45421;-79
2022/05/19 09:34:37;;;;;;;;;10.00;9.33;;;;;35.41;29.17;101353.59;5119521;27;46259;-74
2022/05/19 09:37:03;;;;;;;;;11.67;8.67;;;;;34.99;28.84;101366.19;5119379;27;45504;-76
2022/05/19 09:39:35;;;;;;;;;10.33;9.00;;;;;35.18;28.90;101374.56;5118880;27;46444;-78
2022/05/19 09:42:14;;;;;;;;;12.67;11.67;;;;;35.60;28.23;101364.69;5100495;27;45363;-76
2022/05/19 09:44:48;;;;;;;;;12.67;12.33;;;;;35.38;27.44;101334.81;5101482;27;45476;-74
2022/05/19 09:47:30;;;;;;;;;15.33;15.00;;;;;34.98;27.51;101352.69;5100867;27;45516;-75
2022/05/19 09:50:30;;;;;;;;;11.67;11.67;;;;;34.94;28.67;101399.41;5100661;27;45353;-75
2022/05/19 09:53:01;;;;;;;;;14.67;14.67;;;;;34.76;29.09;101428.56;5096353;27;45357;-76
2022/05/19 09:55:28;;;;;;;;;18.33;17.33;;;;;34.73;28.94;101420.84;5120768;27;45527;-79
2022/05/19 09:57:56;;;;;;;;;13.67;13.67;;;;;34.75;28.41;101418.63;5101566;27;45384;-78
2022/05/19 10:00:43;;;;;;;;;12.00;12.00;;;;;34.57;28.87;101427.63;5099956;27;47522;-77
2022/05/19 10:03:17;;;;;;;;;12.00;12.00;;;;;34.38;28.91;101429.41;5100690;27;45247;-75
2022/05/19 10:05:42;;;;;;;;;10.67;10.67;;;;;33.97;29.64;101401.22;5100222;27;45335;-76
2022/05/19 10:08:18;;;;;;;;;10.33;9.00;;;;;33.42;29.70;101356.22;5100639;27;45604;-77
2022/05/19 10:10:59;;;;;;;;;12.00;12.00;;;;;30.63;30.22;101011.38;5119096;27;45487;-77
2022/05/19 10:13:40;;;;;;;;;15.00;12.67;;;;;32.66;30.88;101404.81;5119490;27;45495;-77
2022/05/19 10:16:09;;;;;;;;;7.33;7.33;;;;;32.61;31.36;101415.81;5118951;27;45356;-78
2022/05/19 10:18:58;;;;;;;;;7.00;7.00;;;;;32.30;31.77;101425.16;5119032;27;45571;-76
2022/05/19 10:21:43;;;;;;;;;8.00;7.00;;;;;29.67;32.82;101058.31;5118393;27;46013;-78
2022/05/19 10:24:22;;;;;;;;;5.00;5.00;;;;;31.73;31.94;101456.28;5100541;27;46144;-75
2022/05/19 10:31:02;;;;;;;;;7.67;7.67;;;;;31.12;32.33;101414.66;5101204;27;45497;-77
2022/05/19 10:32:51;;;;;;;;;6.00;6.00;;;;;30.57;32.71;101435.06;5119736;27;45394;-78
2022/05/19 10:35:31;;;;;;;;;4.67;4.00;;;;;30.70;32.62;101444.81;5113354;27;45573;-76
2022/05/19 10:38:12;;;;;;;;;4.67;3.67;;;;;30.46;32.47;101406.72;5081284;27;45344;-76
2022/05/19 10:40:54;;;;;;;;;4.67;3.00;;;;;30.49;32.78;101439.13;5081549;27;45434;-75
2022/05/19 10:43:57;;;;;;;;;3.33;3.33;;;;;30.44;32.78;101441.00;5080564;27;47628;-77
2022/05/19 10:46:23;;;;;;;;;3.67;3.67;;;;;29.78;33.51;101350.56;5080013;27;45408;-77
2022/05/19 10:49:37;;;;;;;;;5.00;5.00;;;;;29.86;34.64;101437.84;5080370;27;45328;-76
2022/05/19 10:52:23;;;;;;;;;4.00;4.00;;;;;28.99;34.33;101359.09;5071676;27;45555;-74
2022/05/19 10:54:54;;;;;;;;;2.00;2.00;;;;;29.23;34.51;101446.50;5098727;27;45453;-77
2022/05/19 10:57:50;;;;;;;;;7.00;7.00;;;;;28.36;34.59;101365.72;5098689;27;45216;-74
2022/05/19 11:00:23;;;;;;;;;4.00;4.00;;;;;28.62;35.72;101424.44;5098138;27;45472;-75
2022/05/19 11:03:30;;;;;;;;;3.33;2.67;;;;;28.71;34.84;101453.06;5099160;27;45490;-79
2022/05/19 11:06:20;;;;;;;;;3.00;3.00;;;;;28.58;35.08;101447.06;5082677;27;48488;-74
2022/05/19 11:09:23;;;;;;;;;4.33;3.00;;;;;28.70;35.85;101454.13;5083770;27;45692;-74
2022/05/19 11:12:27;;;;;;;;;3.00;3.00;;;;;28.59;35.26;101446.81;5098383;27;45525;-74
2022/05/19 11:15:02;;;;;;;;;4.33;3.67;;;;;27.78;36.03;101331.28;5098638;27;45221;-76
2022/05/19 11:18:05;;;;;;;;;5.00;5.00;;;;;28.54;35.47;101440.44;5097961;27;45618;-73
2022/05/19 11:20:59;;;;;;;;;6.00;5.00;;;;;28.67;35.75;101448.34;5098345;27;45376;-74
2022/05/19 11:23:43;;;;;;;;;6.00;4.00;;;;;28.83;35.44;101446.66;5080359;27;45453;-76
2022/05/19 11:26:27;;;;;;;;;2.67;2.67;;;;;28.31;34.19;101351.97;5080204;27;45201;-79
2022/05/19 11:29:19;;;;;;;;;4.33;4.00;;;;;28.63;34.69;101437.06;5097783;27;45507;-75
2022/05/19 11:32:12;;;;;;;;;6.00;3.00;;;;;27.77;35.69;101276.88;5074441;27;45261;-76
2022/05/19 11:35:11;;;;;;;;;3.00;3.00;;;;;28.79;34.37;101430.75;5080562;27;45575;-77
2022/05/19 11:37:45;;;;;;;;;3.67;3.67;;;;;28.83;34.57;101405.59;5084169;27;45435;-76
2022/05/19 11:40:35;;;;;;;;;1.67;1.67;;;;;28.65;34.45;101373.88;5083012;27;48411;-76
2022/05/19 11:43:16;;;;;;;;;2.00;2.00;;;;;28.69;34.51;101425.13;5065041;27;46352;-79